Time;durP1;ratioP1;P1;durP2;ratioP2;P2;SDS_P1;SDS_P2;PMS_P1;PMS_P2;Temp;Humidity;BMP_temperature;BMP_pressure;BME280_temperature;BME280_humidity;BME280_pressure;Samples;Min_cycle;Max_cycle;Signal;HPM_P1;HPM_P2
2022/03/05 00:00:46;;;;;;;;;;;;;;;5.56;53.31;100148.09;4384970;32;33091;-88
2022/03/05 00:03:15;;;;;;;;;;;;;;;5.56;53.36;100151.59;4373105;32;34973;-89
2022/03/05 00:05:45;;;;;;;;;;;;;;;5.47;53.76;100153.16;4385564;32;34914;-88
2022/03/05 00:08:13;;;;;;;;;;;;;;;5.50;53.38;100153.81;4385151;32;33579;-87
2022/03/05 00:10:41;;;;;;;;;;;;;;;5.48;53.24;100155.66;4384836;32;33878;-89
2022/03/05 00:13:08;;;;;;;;;;;;;;;5.33;53.92;100151.44;4385096;32;34896;-87
2022/03/05 00:15:35;;;;;;;;;;;;;;;5.16;54.44;100148.22;4384171;32;33670;-88
2022/03/05 00:18:03;;;;;;;;;;;;;;;5.46;53.41;100154.94;4383286;32;32983;-87
2022/03/05 00:20:31;;;;;;;;;;;;;;;5.38;53.48;100148.50;4398705;32;34039;-87
2022/03/05 00:22:58;;;;;;;;;;;;;;;5.06;54.70;100139.25;4399469;32;35464;-87
2022/03/05 00:25:26;;;;;;;;;;;;;;;5.27;54.20;100151.03;4373266;32;33940;-89
2022/03/05 00:27:53;;;;;;;;;;;;;;;5.42;53.53;100148.19;4373179;32;31771;-87
2022/03/05 00:30:21;;;;;;;;;;;;;;;5.25;54.28;100153.75;4399549;32;33863;-89
2022/03/05 00:32:50;;;;;;;;;;;;;;;5.32;53.86;100148.91;4385731;32;35523;-87
2022/03/05 00:35:17;;;;;;;;;;;;;;;5.35;53.79;100144.28;4373447;32;34778;-88
2022/03/05 00:37:45;;;;;;;;;;;;;;;5.38;53.39;100149.34;4373144;32;32965;-88
2022/03/05 00:40:12;;;;;;;;;;;;;;;5.51;52.97;100139.66;4387616;32;32808;-89
2022/03/05 00:42:40;;;;;;;;;;;;;;;5.51;52.84;100137.84;4399611;32;35574;-88
2022/03/05 00:45:07;;;;;;;;;;;;;;;5.54;52.79;100137.66;4399204;32;34993;-89
2022/03/05 00:47:35;;;;;;;;;;;;;;;5.57;52.66;100134.78;4398823;32;31913;-88
2022/03/05 00:50:03;;;;;;;;;;;;;;;5.48;52.82;100135.44;4399209;32;33733;-88
2022/03/05 00:52:31;;;;;;;;;;;;;;;5.42;53.01;100139.41;4385408;32;35081;-88
2022/03/05 00:54:59;;;;;;;;;;;;;;;5.45;52.94;100126.03;4372672;32;34538;-88
2022/03/05 00:57:26;;;;;;;;;;;;;;;5.60;52.38;100125.84;4359704;32;797975;-87
2022/03/05 00:59:53;;;;;;;;;;;;;;;5.51;52.50;100123.81;4398170;32;33846;-88
2022/03/05 01:02:22;;;;;;;;;;;;;;;5.38;52.91;100117.66;4385474;32;35117;-88
2022/03/05 01:04:49;;;;;;;;;;;;;;;5.41;52.80;100124.53;4372355;32;34568;-88
2022/03/05 01:07:17;;;;;;;;;;;;;;;5.43;52.70;100119.03;4399032;32;33409;-88
2022/03/05 01:09:44;;;;;;;;;;;;;;;5.39;52.68;100119.41;4398925;32;33640;-87
2022/03/05 01:12:12;;;;;;;;;;;;;;;5.44;52.19;100127.81;4385530;32;35252;-89
2022/03/05 01:14:39;;;;;;;;;;;;;;;5.36;52.15;100127.50;4372596;32;34427;-88
2022/03/05 01:17:08;;;;;;;;;;;;;;;5.28;52.04;100127.16;4385034;32;33922;-87
2022/03/05 01:19:36;;;;;;;;;;;;;;;5.42;51.67;100116.53;4371980;32;34074;-88
2022/03/05 01:22:04;;;;;;;;;;;;;;;5.41;51.84;100122.75;4384678;32;34852;-86
2022/03/05 01:24:32;;;;;;;;;;;;;;;5.41;51.74;100117.50;4399063;32;34631;-88
2022/03/05 01:27:00;;;;;;;;;;;;;;;5.42;52.09;100120.94;4383212;32;33194;-88
2022/03/05 01:29:27;;;;;;;;;;;;;;;5.41;52.01;100121.91;4372104;32;33786;-87
2022/03/05 01:31:55;;;;;;;;;;;;;;;5.24;52.67;100124.81;4384707;32;33424;-88
2022/03/05 01:34:22;;;;;;;;;;;;;;;5.41;52.33;100119.25;4384935;32;34417;-88
2022/03/05 01:36:50;;;;;;;;;;;;;;;5.46;52.01;100120.62;4384678;32;33491;-89
2022/03/05 01:39:17;;;;;;;;;;;;;;;5.50;51.79;100124.78;4384988;32;33758;-87
2022/03/05 01:41:46;;;;;;;;;;;;;;;5.43;52.09;100127.91;4383339;32;34837;-87
2022/03/05 01:44:13;;;;;;;;;;;;;;;5.43;51.97;100119.03;4385388;32;34327;-88
2022/03/05 01:46:41;;;;;;;;;;;;;;;5.50;51.74;100114.22;4384240;32;32822;-88
2022/03/05 01:49:09;;;;;;;;;;;;;;;5.47;51.68;100111.78;4372503;32;34746;-88
2022/03/05 01:51:36;;;;;;;;;;;;;;;5.41;51.96;100116.62;4397966;32;36106;-86
2022/03/05 01:54:05;;;;;;;;;;;;;;;5.41;51.93;100125.41;4398711;32;34194;-88
2022/03/05 01:56:33;;;;;;;;;;;;;;;5.28;52.38;100123.69;4384677;32;33946;-88
2022/03/05 01:59:00;;;;;;;;;;;;;;;5.22;52.52;100127.59;4384731;32;34455;-88
2022/03/05 02:01:28;;;;;;;;;;;;;;;5.26;52.40;100131.69;4371629;32;36071;-87
2022/03/05 02:03:56;;;;;;;;;;;;;;;5.20;52.58;100129.47;4398037;32;33945;-89
2022/03/05 02:06:24;;;;;;;;;;;;;;;5.16;52.66;100132.41;4397847;32;33298;-88
2022/03/05 02:08:51;;;;;;;;;;;;;;;4.87;53.27;100142.25;4383538;32;32667;-88
2022/03/05 02:11:19;;;;;;;;;;;;;;;5.08;52.83;100134.75;4370407;32;35644;-87
2022/03/05 02:13:46;;;;;;;;;;;;;;;4.93;53.04;100139.22;4384354;32;33716;-89
2022/03/05 02:16:14;;;;;;;;;;;;;;;4.93;52.91;100138.38;4383778;32;33455;-87
2022/03/05 02:18:45;;;;;;;;;;;;;;;5.05;52.58;100141.06;4385041;32;33964;-89
2022/03/05 02:21:13;;;;;;;;;;;;;;;5.03;52.60;100142.09;4371060;32;36089;-89
2022/03/05 02:23:40;;;;;;;;;;;;;;;4.95;52.60;100145.25;4371735;32;32735;-88
2022/03/05 02:26:08;;;;;;;;;;;;;;;5.03;52.42;100150.00;4383529;32;33716;-87
2022/03/05 02:28:36;;;;;;;;;;;;;;;4.88;52.85;100154.50;4398202;32;34589;-88
2022/03/05 02:31:04;;;;;;;;;;;;;;;4.98;52.43;100152.13;4371495;32;34934;-89
2022/03/05 02:33:31;;;;;;;;;;;;;;;4.98;52.29;100147.66;4383195;32;32788;-86
2022/03/05 02:35:59;;;;;;;;;;;;;;;4.95;52.42;100147.03;4383120;32;33623;-86
2022/03/05 02:38:26;;;;;;;;;;;;;;;4.68;52.93;100156.72;4390830;32;33194;-89
2022/03/05 02:40:54;;;;;;;;;;;;;;;4.89;52.64;100147.44;4374504;32;35296;-88
2022/03/05 02:43:22;;;;;;;;;;;;;;;4.58;53.35;100151.22;4386058;32;34524;-88
2022/03/05 02:45:50;;;;;;;;;;;;;;;4.64;53.35;100149.97;4386271;32;32944;-87
2022/03/05 02:48:18;;;;;;;;;;;;;;;4.56;53.63;100153.09;4400336;32;33989;-88
2022/03/05 02:50:46;;;;;;;;;;;;;;;4.55;53.45;100150.56;4386142;32;34773;-87
2022/03/05 02:53:13;;;;;;;;;;;;;;;4.49;53.38;100154.44;4386363;32;34923;-86
2022/03/05 02:55:40;;;;;;;;;;;;;;;4.70;52.76;100150.41;4385677;32;33083;-88
2022/03/05 02:58:08;;;;;;;;;;;;;;;4.65;52.83;100143.75;4385719;32;34067;-89
2022/03/05 03:00:35;;;;;;;;;;;;;;;4.61;52.78;100148.38;4399807;32;35382;-89
2022/03/05 03:03:03;;;;;;;;;;;;;;;4.70;52.58;100149.59;4385819;32;34884;-87
2022/03/05 03:05:31;;;;;;;;;;;;;;;4.80;52.45;100155.94;4399717;32;32546;-89
2022/03/05 03:07:58;;;;;;;;;;;;;;;4.90;51.87;100152.59;4399744;32;34727;-89
2022/03/05 03:10:26;;;;;;;;;;;;;;;4.80;51.90;100146.22;4400052;32;35505;-88
2022/03/05 03:12:54;;;;;;;;;;;;;;;4.62;52.61;100152.69;4385779;32;34576;-89
2022/03/05 03:15:21;;;;;;;;;;;;;;;4.83;52.14;100148.66;4385896;32;32969;-89
2022/03/05 03:17:49;;;;;;;;;;;;;;;4.86;52.03;100145.84;4385673;32;34197;-87
2022/03/05 03:20:21;;;;;;;;;;;;;;;4.94;51.67;100159.37;4399773;32;36626;-89
2022/03/05 03:22:49;;;;;;;;;;;;;;;4.93;51.53;100155.06;4385779;32;34212;-87
2022/03/05 03:25:16;;;;;;;;;;;;;;;4.93;51.44;100152.41;4400488;32;34307;-89
2022/03/05 03:27:44;;;;;;;;;;;;;;;4.87;51.46;100151.94;4384930;32;33576;-87
2022/03/05 03:30:13;;;;;;;;;;;;;;;4.72;51.98;100150.31;4370203;32;33861;-89
2022/03/05 03:32:41;;;;;;;;;;;;;;;4.58;52.65;100148.56;4370617;32;35214;-87
2022/03/05 03:35:10;;;;;;;;;;;;;;;4.81;51.98;100152.37;4346024;32;32723;-87
2022/03/05 03:37:37;;;;;;;;;;;;;;;4.65;52.35;100151.66;4382442;32;33216;-87
2022/03/05 03:40:05;;;;;;;;;;;;;;;4.52;52.75;100154.22;4382618;32;35067;-88
2022/03/05 03:42:33;;;;;;;;;;;;;;;4.49;53.00;100151.78;4382382;32;32522;-87
2022/03/05 03:45:01;;;;;;;;;;;;;;;4.50;52.89;100153.47;4382119;32;33487;-87
2022/03/05 03:47:28;;;;;;;;;;;;;;;4.40;53.11;100155.00;4384238;32;34614;-87
2022/03/05 03:49:58;;;;;;;;;;;;;;;4.51;52.90;100147.28;4357349;32;33913;-88
2022/03/05 03:52:26;;;;;;;;;;;;;;;4.47;53.02;100150.19;4369954;32;34346;-88
2022/03/05 03:54:53;;;;;;;;;;;;;;;4.58;52.51;100155.63;4358439;32;32727;-88
2022/03/05 03:57:21;;;;;;;;;;;;;;;4.44;52.77;100148.59;4384517;32;33741;-87
2022/03/05 03:59:51;;;;;;;;;;;;;;;4.11;54.02;100152.50;4384600;32;36209;-87
2022/03/05 04:02:19;;;;;;;;;;;;;;;4.25;53.29;100157.78;4370013;32;33509;-87
2022/03/05 04:04:48;;;;;;;;;;;;;;;4.07;53.84;100149.22;4371040;32;33241;-88
2022/03/05 04:10:04;;;;;;;;;;;;;;;4.27;53.38;100154.06;4383349;32;35506;-89
2022/03/05 04:12:34;;;;;;;;;;;;;;;4.26;53.25;100156.81;4370692;32;34698;-87
2022/03/05 04:15:02;;;;;;;;;;;;;;;4.23;53.14;100154.38;4384486;32;33442;-88
2022/03/05 04:17:30;;;;;;;;;;;;;;;4.40;52.60;100155.00;4383088;32;34165;-87
2022/03/05 04:19:58;;;;;;;;;;;;;;;4.50;52.19;100152.63;4384397;32;35834;-87
2022/03/05 04:22:25;;;;;;;;;;;;;;;4.58;51.86;100161.75;4370291;32;32644;-87
2022/03/05 04:24:53;;;;;;;;;;;;;;;4.58;51.70;100164.38;4371117;32;32929;-87
2022/03/05 04:27:20;;;;;;;;;;;;;;;4.55;51.96;100169.81;4384257;32;34200;-86
2022/03/05 04:29:47;;;;;;;;;;;;;;;4.53;51.92;100174.34;4385693;32;35471;-88
2022/03/05 04:32:15;;;;;;;;;;;;;;;4.54;51.77;100167.31;4384549;32;35824;-87
2022/03/05 04:34:43;;;;;;;;;;;;;;;4.45;52.11;100171.34;4371153;32;32451;-86
2022/03/05 04:37:11;;;;;;;;;;;;;;;4.30;52.46;100167.06;4372370;32;33618;-87
2022/03/05 04:39:38;;;;;;;;;;;;;;;4.29;52.35;100168.03;4385560;32;35860;-86
2022/03/05 04:42:06;;;;;;;;;;;;;;;4.35;52.22;100183.41;4359663;32;33161;-87
2022/03/05 04:44:33;;;;;;;;;;;;;;;4.51;51.77;100180.69;4384730;32;33244;-86
2022/03/05 04:47:01;;;;;;;;;;;;;;;4.53;51.67;100187.53;4371158;32;34081;-86
2022/03/05 04:49:29;;;;;;;;;;;;;;;4.53;51.61;100181.44;4384025;32;36024;-87
2022/03/05 04:51:56;;;;;;;;;;;;;;;4.58;51.56;100168.78;4398141;32;34152;-87
2022/03/05 04:54:29;;;;;;;;;;;;;;;4.63;51.39;100174.62;4396233;26;32179;-80
2022/03/05 04:56:58;;;;;;;;;;;;;;;4.55;51.71;100185.63;4399279;32;34649;-81
2022/03/05 04:59:25;;;;;;;;;;;;;;;4.50;51.82;100184.25;4399221;32;35158;-81
2022/03/05 05:01:52;;;;;;;;;;;;;;;4.27;52.35;100176.94;4383181;32;32749;-81
2022/03/05 05:04:20;;;;;;;;;;;;;;;4.34;52.27;100176.47;4372305;32;32390;-82
2022/03/05 05:06:47;;;;;;;;;;;;;;;4.43;51.81;100177.69;4385438;32;34170;-81
2022/03/05 05:09:15;;;;;;;;;;;;;;;3.95;53.11;100176.31;4397033;32;34859;-81
2022/03/05 05:11:42;;;;;;;;;;;;;;;4.05;52.68;100180.06;4384878;32;34830;-81
2022/03/05 05:14:10;;;;;;;;;;;;;;;4.13;52.50;100179.56;4398956;32;34084;-81
2022/03/05 05:16:38;;;;;;;;;;;;;;;4.25;52.23;100173.56;4396313;32;33589;-81
2022/03/05 05:19:24;;;;;;;;;;;;;;;4.27;51.99;100177.78;4384886;32;35049;-81
2022/03/05 05:21:52;;;;;;;;;;;;;;;4.15;52.70;100185.63;4397560;32;34275;-81
2022/03/05 05:24:19;;;;;;;;;;;;;;;4.38;52.10;100188.50;4398765;32;32829;-81
2022/03/05 05:26:48;;;;;;;;;;;;;;;4.14;52.46;100190.03;4397853;32;33521;-81
2022/03/05 05:29:16;;;;;;;;;;;;;;;4.22;52.60;100193.03;4384572;32;33399;-81
2022/03/05 05:32:03;;;;;;;;;;;;;;;4.14;53.01;100192.66;4374438;32;34199;-81
2022/03/05 05:34:32;;;;;;;;;;;;;;;3.93;53.62;100193.97;4384755;32;32321;-81
2022/03/05 05:36:59;;;;;;;;;;;;;;;4.05;52.76;100198.50;4372223;32;32709;-81
2022/03/05 05:39:26;;;;;;;;;;;;;;;4.25;52.46;100199.91;4398771;32;34387;-81
2022/03/05 05:41:55;;;;;;;;;;;;;;;4.15;52.88;100191.72;4396897;32;32926;-81
2022/03/05 05:44:22;;;;;;;;;;;;;;;4.18;52.92;100190.69;4380510;32;32657;-81
2022/03/05 05:46:50;;;;;;;;;;;;;;;3.81;53.80;100197.38;4384601;32;34109;-81
2022/03/05 05:49:20;;;;;;;;;;;;;;;4.13;53.00;100198.88;4384473;32;35166;-81
2022/03/05 05:51:47;;;;;;;;;;;;;;;4.34;52.26;100200.16;4384417;32;35344;-81
2022/03/05 05:54:15;;;;;;;;;;;;;;;4.44;52.02;100206.53;4372139;32;33482;-81
2022/03/05 05:56:42;;;;;;;;;;;;;;;4.51;52.04;100202.59;4371441;32;34936;-81
2022/03/05 05:59:10;;;;;;;;;;;;;;;4.75;51.33;100214.22;4384809;32;34906;-81
2022/03/05 06:01:37;;;;;;;;;;;;;;;4.62;51.72;100215.09;4398026;32;33721;-81
2022/03/05 06:04:05;;;;;;;;;;;;;;;4.62;51.91;100217.72;4383634;32;33547;-81
2022/03/05 06:06:32;;;;;;;;;;;;;;;4.65;51.39;100217.53;4396817;32;33540;-81
2022/03/05 06:08:59;;;;;;;;;;;;;;;4.72;51.05;100219.66;4370954;32;34565;-82
2022/03/05 06:11:27;;;;;;;;;;;;;;;4.71;51.28;100225.06;4394877;32;34821;-81
2022/03/05 06:13:54;;;;;;;;;;;;;;;4.52;51.82;100217.44;4384697;32;32738;-82
2022/03/05 06:16:22;;;;;;;;;;;;;;;4.82;50.89;100226.03;4398749;32;34838;-82
2022/03/05 06:18:50;;;;;;;;;;;;;;;4.76;51.34;100222.97;4398025;32;35351;-83
2022/03/05 06:21:17;;;;;;;;;;;;;;;4.88;51.06;100223.03;4386321;32;35396;-82
2022/03/05 06:23:45;;;;;;;;;;;;;;;4.66;52.37;100233.25;4385450;32;33829;-81
2022/03/05 06:26:13;;;;;;;;;;;;;;;4.72;52.46;100234.66;4397846;32;33212;-82
2022/03/05 06:28:41;;;;;;;;;;;;;;;5.05;51.34;100232.47;4399238;32;34709;-81
2022/03/05 06:31:08;;;;;;;;;;;;;;;4.98;51.32;100236.47;4385503;32;34731;-82
2022/03/05 06:33:36;;;;;;;;;;;;;;;5.02;51.14;100235.31;4386363;32;32613;-81
2022/03/05 06:36:04;;;;;;;;;;;;;;;5.03;51.01;100243.13;4386077;32;34085;-81
2022/03/05 06:38:31;;;;;;;;;;;;;;;5.10;50.59;100239.12;4397943;32;34654;-82
2022/03/05 06:41:00;;;;;;;;;;;;;;;5.06;50.68;100240.31;4398430;32;33765;-81
2022/03/05 06:43:27;;;;;;;;;;;;;;;5.12;50.85;100241.69;4399068;32;33527;-82
2022/03/05 06:45:54;;;;;;;;;;;;;;;5.14;50.77;100240.66;4397881;32;33635;-80
2022/03/05 06:48:22;;;;;;;;;;;;;;;5.18;50.69;100236.03;4398184;32;33746;-80
2022/03/05 06:50:50;;;;;;;;;;;;;;;5.38;50.20;100244.31;4386364;32;33715;-80
2022/03/05 06:53:18;;;;;;;;;;;;;;;5.17;50.57;100248.34;4399004;32;33151;-80
2022/03/05 06:55:46;;;;;;;;;;;;;;;5.21;50.23;100246.38;4397909;32;34051;-80
2022/03/05 06:58:15;;;;;;;;;;;;;;;5.24;50.15;100243.53;4373053;32;33917;-80
2022/03/05 07:00:43;;;;;;;;;;;;;;;5.25;50.38;100246.06;4399994;32;35471;-79
2022/03/05 07:03:11;;;;;;;;;;;;;;;5.48;50.02;100242.75;4386226;32;32987;-82
2022/03/05 07:05:38;;;;;;;;;;;;;;;5.45;49.99;100245.59;4385632;32;33904;-82
2022/03/05 07:08:07;;;;;;;;;;;;;;;5.43;50.30;100244.88;4397960;32;34811;-81
2022/03/05 07:10:35;;;;;;;;;;;;;;;5.64;49.80;100239.00;4385715;32;33551;-81
2022/03/05 07:13:03;;;;;;;;;;;;;;;5.42;50.26;100247.59;4382481;32;33134;-82
2022/03/05 07:15:30;;;;;;;;;;;;;;;5.50;49.50;100251.44;4373193;32;32280;-80
2022/03/05 07:17:58;;;;;;;;;;;;;;;5.40;49.35;100247.72;4385407;32;34179;-82
2022/03/05 07:20:25;;;;;;;;;;;;;;;5.36;49.24;100253.28;4398804;32;34425;-80
2022/03/05 07:22:53;;;;;;;;;;;;;;;5.79;48.26;100248.53;4385104;32;32654;-81
2022/03/05 07:25:22;;;;;;;;;;;;;;;5.98;47.66;100248.16;4384226;32;34896;-81
2022/03/05 07:27:50;;;;;;;;;;;;;;;5.65;48.45;100258.31;4398831;32;35738;-81
2022/03/05 07:30:17;;;;;;;;;;;;;;;5.86;47.96;100249.84;4398789;32;35348;-80
2022/03/05 07:32:46;;;;;;;;;;;;;;;5.91;47.58;100249.53;4385698;32;33278;-80
2022/03/05 07:35:13;;;;;;;;;;;;;;;5.75;47.08;100254.97;4383102;32;32055;-82
2022/03/05 07:37:40;;;;;;;;;;;;;;;5.79;47.24;100255.66;4398031;32;36085;-80
2022/03/05 07:40:08;;;;;;;;;;;;;;;6.00;45.88;100262.97;4398505;32;35252;-82
2022/03/05 07:42:36;;;;;;;;;;;;;;;5.76;47.77;100255.78;4396306;32;32956;-81
2022/03/05 07:45:03;;;;;;;;;;;;;;;6.09;46.72;100261.47;4398076;32;34614;-81
2022/03/05 07:47:31;;;;;;;;;;;;;;;6.36;45.66;100249.84;4397834;32;35782;-80
2022/03/05 07:50:00;;;;;;;;;;;;;;;6.49;46.23;100257.75;4371234;32;33766;-81
2022/03/05 07:52:27;;;;;;;;;;;;;;;6.44;46.78;100254.59;4397310;32;32918;-82
2022/03/05 07:54:55;;;;;;;;;;;;;;;6.52;47.14;100261.03;4399381;32;34376;-83
2022/03/05 07:57:22;;;;;;;;;;;;;;;6.68;46.96;100263.44;4398193;32;34891;-85
2022/03/05 07:59:49;;;;;;;;;;;;;;;6.82;46.52;100266.78;4385462;32;32862;-83
2022/03/05 08:02:37;;;;;;;;;;;;;;;6.97;46.19;100272.78;4387635;32;32800;-81
2022/03/05 08:05:06;;;;;;;;;;;;;;;6.92;46.58;100281.03;4398570;32;35952;-82
2022/03/05 08:07:34;;;;;;;;;;;;;;;6.87;46.39;100277.91;4371621;32;34097;-82
2022/03/05 08:10:01;;;;;;;;;;;;;;;6.74;46.63;100276.22;4397497;32;34594;-83
2022/03/05 08:12:29;;;;;;;;;;;;;;;7.04;45.76;100282.81;4398846;32;33512;-82
2022/03/05 08:14:56;;;;;;;;;;;;;;;7.08;45.28;100275.53;4383982;32;33403;-84
2022/03/05 08:17:25;;;;;;;;;;;;;;;6.99;46.10;100271.72;4390814;32;35033;-83
2022/03/05 08:19:52;;;;;;;;;;;;;;;6.96;45.92;100277.25;4398278;32;34381;-83
2022/03/05 08:22:21;;;;;;;;;;;;;;;7.09;45.54;100280.69;4384165;32;33635;-83
2022/03/05 08:24:48;;;;;;;;;;;;;;;7.03;44.76;100282.94;4384133;32;32953;-84
2022/03/05 08:27:16;;;;;;;;;;;;;;;7.01;44.91;100279.56;4384648;32;36118;-83
2022/03/05 08:29:44;;;;;;;;;;;;;;;7.08;44.73;100273.69;4397700;32;34716;-83
2022/03/05 08:32:12;;;;;;;;;;;;;;;7.19;44.62;100279.06;4389601;32;32439;-84
2022/03/05 08:34:40;;;;;;;;;;;;;;;7.36;44.83;100277.84;4398838;32;34210;-84
2022/03/05 08:37:09;;;;;;;;;;;;;;;7.02;44.99;100281.25;4398610;32;35293;-83
2022/03/05 08:39:36;;;;;;;;;;;;;;;6.83;45.78;100281.72;4397408;32;35283;-83
2022/03/05 08:42:05;;;;;;;;;;;;;;;7.08;45.81;100291.37;4398983;32;34177;-82
2022/03/05 08:44:32;;;;;;;;;;;;;;;7.27;44.55;100281.16;4386647;32;33283;-83
2022/03/05 08:47:00;;;;;;;;;;;;;;;6.90;46.02;100290.06;4399219;32;34220;-82
2022/03/05 08:49:29;;;;;;;;;;;;;;;7.07;45.01;100292.34;4397676;32;34826;-84
2022/03/05 08:51:56;;;;;;;;;;;;;;;7.14;45.09;100291.78;4398062;32;32658;-83
2022/03/05 08:54:25;;;;;;;;;;;;;;;6.90;46.07;100288.25;4383275;32;33271;-83
2022/03/05 08:56:53;;;;;;;;;;;;;;;7.07;45.00;100282.59;4385650;32;35573;-83
2022/03/05 08:59:21;;;;;;;;;;;;;;;6.87;45.88;100284.97;4399151;32;34769;-83
2022/03/05 09:01:48;;;;;;;;;;;;;;;7.02;45.58;100283.88;4399588;32;33489;-83
2022/03/05 09:04:16;;;;;;;;;;;;;;;7.11;46.16;100286.72;4398712;32;34887;-84
2022/03/05 09:06:43;;;;;;;;;;;;;;;7.07;46.23;100281.78;4397683;32;35585;-84
2022/03/05 09:09:10;;;;;;;;;;;;;;;7.33;45.11;100284.19;4396852;32;33751;-84
2022/03/05 09:11:38;;;;;;;;;;;;;;;7.09;45.88;100282.50;4397344;32;33986;-83
2022/03/05 09:14:06;;;;;;;;;;;;;;;7.29;45.09;100282.72;4384736;32;34587;-85
2022/03/05 09:16:37;;;;;;;;;;;;;;;7.22;43.88;100278.84;4397473;32;35232;-83
2022/03/05 09:19:05;;;;;;;;;;;;;;;7.26;44.79;100279.47;4384724;32;34603;-83
2022/03/05 09:21:34;;;;;;;;;;;;;;;7.28;46.21;100280.19;4399232;32;32818;-86
2022/03/05 09:24:02;;;;;;;;;;;;;;;7.51;45.10;100276.69;4384571;32;33647;-84
2022/03/05 09:26:31;;;;;;;;;;;;;;;7.32;42.64;100281.66;4398265;32;34443;-84
2022/03/05 09:28:58;;;;;;;;;;;;;;;7.63;41.76;100273.16;4397435;32;35510;-84
2022/03/05 09:31:25;;;;;;;;;;;;;;;7.83;39.62;100272.50;4397219;32;31791;-83
2022/03/05 09:33:53;;;;;;;;;;;;;;;7.89;39.40;100275.53;4397154;32;32620;-84
2022/03/05 09:36:20;;;;;;;;;;;;;;;7.85;39.36;100274.06;4398389;32;34227;-84
2022/03/05 09:38:48;;;;;;;;;;;;;;;7.59;40.32;100282.28;4396291;32;34187;-85
2022/03/05 09:41:16;;;;;;;;;;;;;;;7.08;42.38;100283.44;4385048;32;32934;-85
2022/03/05 09:43:43;;;;;;;;;;;;;;;7.44;43.93;100283.44;4397307;32;33683;-84
2022/03/05 09:46:10;;;;;;;;;;;;;;;8.06;41.00;100274.25;4397219;32;35284;-83
2022/03/05 09:48:41;;;;;;;;;;;;;;;8.25;42.10;100274.56;4397108;32;34320;-83
2022/03/05 09:51:09;;;;;;;;;;;;;;;8.42;41.06;100268.81;4398446;32;33393;-83
2022/03/05 09:53:36;;;;;;;;;;;;;;;8.28;39.90;100275.16;4384155;32;33346;-83
2022/03/05 09:56:05;;;;;;;;;;;;;;;8.83;39.46;100262.78;4384145;32;34307;-84
2022/03/05 09:58:48;;;;;;;;;;;;;;;9.18;38.41;100266.09;4383771;32;33384;-83
2022/03/05 10:01:17;;;;;;;;;;;;;;;9.23;37.32;100271.88;4384595;32;33663;-84
2022/03/05 10:03:45;;;;;;;;;;;;;;;9.41;38.28;100275.69;4384494;32;33894;-83
2022/03/05 10:06:14;;;;;;;;;;;;;;;9.46;37.64;100270.00;4383647;32;35392;-84
2022/03/05 10:08:41;;;;;;;;;;;;;;;9.58;36.51;100271.66;4398625;32;34404;-83
2022/03/05 10:11:11;;;;;;;;;;;;;;;9.70;35.64;100262.66;4372492;32;31620;-84
2022/03/05 10:13:40;;;;;;;;;;;;;;;10.03;35.75;100263.34;4397078;32;34393;-82
2022/03/05 10:16:28;;;;;;;;;;;;;;;10.54;36.56;100258.91;4396336;32;34815;-85
2022/03/05 10:19:19;;;;;;;;;;;;;;;10.23;34.53;100257.22;4377813;32;33674;-83
2022/03/05 10:22:03;;;;;;;;;;;;;;;9.89;34.25;100258.34;4398197;32;32368;-83
2022/03/05 10:24:36;;;;;;;;;;;;;;;10.36;33.28;100246.34;4384667;32;34199;-84
2022/03/05 10:27:04;;;;;;;;;;;;;;;10.25;36.97;100259.72;4397485;32;34334;-83
2022/03/05 10:29:34;;;;;;;;;;;;;;;10.62;33.33;100248.47;4396833;32;34042;-86
2022/03/05 10:32:09;;;;;;;;;;;;;;;10.64;33.42;100248.28;4384652;32;35035;-85
2022/03/05 10:34:45;;;;;;;;;;;;;;;9.80;34.42;100259.09;4396873;32;33940;-84
2022/03/05 10:37:13;;;;;;;;;;;;;;;10.11;32.73;100250.25;4384704;32;36732;-86
2022/03/05 10:39:40;;;;;;;;;;;;;;;10.14;34.77;100255.34;4398562;32;33803;-83
2022/03/05 10:42:18;;;;;;;;;;;;;;;10.24;34.22;100253.56;4397065;32;32795;-82
2022/03/05 10:45:06;;;;;;;;;;;;;;;9.94;33.48;100253.47;4398751;32;34261;-82
2022/03/05 10:47:40;;;;;;;;;;;;;;;11.10;34.16;100243.28;4382381;32;35012;-87
2022/03/05 10:50:23;;;;;;;;;;;;;;;11.39;32.53;100237.88;4395923;32;34164;-83
2022/03/05 10:52:54;;;;;;;;;;;;;;;10.85;31.30;100241.94;4397738;32;33489;-84
2022/03/05 10:55:23;;;;;;;;;;;;;;;11.29;33.37;100238.84;4371006;32;32380;-81
2022/03/05 10:57:58;;;;;;;;;;;;;;;11.07;32.15;100236.41;4392781;32;34420;-81
2022/03/05 11:00:27;;;;;;;;;;;;;;;10.80;32.60;100244.19;4398557;32;34725;-84
2022/03/05 11:02:56;;;;;;;;;;;;;;;10.24;33.74;100231.44;4399549;32;33872;-82
2022/03/05 11:05:24;;;;;;;;;;;;;;;11.38;29.63;100238.88;4384653;32;34121;-83
2022/03/05 11:07:52;;;;;;;;;;;;;;;10.97;32.55;100232.91;4386550;32;36132;-81
2022/03/05 11:10:21;;;;;;;;;;;;;;;11.18;31.13;100230.13;4371773;32;34889;-83
2022/03/05 11:12:52;;;;;;;;;;;;;;;10.58;32.95;100238.22;4385570;32;33348;-81
2022/03/05 11:15:20;;;;;;;;;;;;;;;10.83;32.20;100240.37;4398005;32;33822;-85
2022/03/05 11:17:47;;;;;;;;;;;;;;;11.09;32.67;100233.59;4399884;32;34640;-84
2022/03/05 11:20:17;;;;;;;;;;;;;;;11.24;32.35;100232.25;4386666;32;34162;-83
2022/03/05 11:22:49;;;;;;;;;;;;;;;11.34;32.71;100223.28;4381692;32;31912;-82
2022/03/05 11:25:19;;;;;;;;;;;;;;;11.21;32.24;100221.88;4385618;32;34163;-83
2022/03/05 11:27:52;;;;;;;;;;;;;;;11.08;32.22;100215.94;4385715;32;36012;-83
2022/03/05 11:30:20;;;;;;;;;;;;;;;10.84;32.03;100218.16;4373365;32;33946;-82
2022/03/05 11:32:48;;;;;;;;;;;;;;;10.81;31.58;100223.72;4373787;32;31764;-81
2022/03/05 11:35:20;;;;;;;;;;;;;;;10.69;32.49;100219.47;4386943;32;34903;-82
2022/03/05 11:37:48;;;;;;;;;;;;;;;10.53;31.59;100212.00;4387061;32;35213;-86
2022/03/05 11:43:03;;;;;;;;;;;;;;;10.70;32.86;100213.19;4413554;27;33460;-84
2022/03/05 11:45:39;;;;;;;;;;;;;;;11.03;31.29;100207.53;4401556;32;33322;-87
2022/03/05 11:48:32;;;;;;;;;;;;;;;11.02;31.11;100201.38;4397689;32;35747;-86
2022/03/05 11:51:21;;;;;;;;;;;;;;;11.31;31.36;100204.09;4398263;32;35123;-89
2022/03/05 11:54:02;;;;;;;;;;;;;;;11.10;30.50;100206.00;4388914;32;33903;-88
2022/03/05 11:56:36;;;;;;;;;;;;;;;11.08;31.44;100203.50;4398640;32;34307;-84
2022/03/05 11:59:30;;;;;;;;;;;;;;;11.13;31.58;100200.41;4388105;32;36798;-87
2022/03/05 12:02:38;;;;;;;;;;;;;;;11.10;29.91;100198.00;4414627;32;35232;-86
2022/03/05 12:05:37;;;;;;;;;;;;;;;10.97;29.84;100198.28;4392397;32;35015;-85
2022/03/05 12:08:29;;;;;;;;;;;;;;;10.65;32.39;100199.47;4400718;32;32704;-89
2022/03/05 12:11:10;;;;;;;;;;;;;;;10.96;32.36;100195.75;4380835;32;35701;-85
2022/03/05 12:14:00;;;;;;;;;;;;;;;10.67;32.64;100185.03;4395264;32;35440;-90
2022/03/05 12:16:57;;;;;;;;;;;;;;;10.89;32.10;100186.63;4407943;32;33200;-81
2022/03/05 12:19:25;;;;;;;;;;;;;;;10.33;31.92;100188.97;4405754;32;33767;-81
2022/03/05 12:21:55;;;;;;;;;;;;;;;10.15;31.74;100185.25;4403202;32;35022;-81
2022/03/05 12:24:23;;;;;;;;;;;;;;;10.23;33.06;100190.75;4396945;32;34576;-79
2022/03/05 12:26:52;;;;;;;;;;;;;;;10.24;31.75;100178.28;4385227;32;33507;-79
2022/03/05 12:29:20;;;;;;;;;;;;;;;10.48;31.71;100179.63;4378671;32;35029;-79
2022/03/05 12:31:49;;;;;;;;;;;;;;;10.46;32.56;100181.59;4385866;32;36283;-80
2022/03/05 12:34:19;;;;;;;;;;;;;;;10.59;32.56;100184.84;4384361;32;34504;-80
2022/03/05 12:36:51;;;;;;;;;;;;;;;10.50;32.41;100180.38;4370919;32;32702;-86
2022/03/05 12:39:46;;;;;;;;;;;;;;;10.18;32.53;100177.00;4401329;32;33761;-85
2022/03/05 12:42:37;;;;;;;;;;;;;;;10.17;32.51;100180.63;4397207;32;35025;-87
2022/03/05 12:45:21;;;;;;;;;;;;;;;10.10;32.34;100181.28;4408291;32;34574;-87
2022/03/05 12:47:59;;;;;;;;;;;;;;;10.25;32.33;100183.47;4405297;32;33385;-86
2022/03/05 12:50:29;;;;;;;;;;;;;;;10.51;32.89;100181.19;4387262;32;34087;-87
2022/03/05 12:53:05;;;;;;;;;;;;;;;10.44;31.56;100177.38;4400064;32;34845;-86
2022/03/05 12:55:49;;;;;;;;;;;;;;;10.34;33.61;100176.50;4400129;32;34505;-89
2022/03/05 12:58:37;;;;;;;;;;;;;;;10.55;33.27;100180.78;4388594;32;32111;-87
2022/03/05 13:01:29;;;;;;;;;;;;;;;10.30;31.85;100177.75;4408962;32;33895;-89
2022/03/05 13:04:01;;;;;;;;;;;;;;;10.40;32.33;100176.81;4404638;32;34163;-89